Scroll down
FLIGHT INFORMATION
Malaysia Airlines

MAS101

At Arrival Gate

PHNL
 WMKK
DATE: 2018-09-29
GATE:  -
GATE DEPARTURE: 16:02
TAKEOFF: 16:16
DATE: 2018-09-30
GATE:  -
LANDING: 03:40
GATE ARRIVAL: 03:47
FLIGHT DATA
Crew: 
Speed: 
941 kph
Altitude: 
37,006 ft
Stage Length: 
10,968.5 km
Block Time: 
11.7 hrs
Flight Time: 
11.4 hrs
Fuel Used: 
140,435 kg
Cleared Route: 
TRACK DATA
50,000 ft 1,000 kts
AIRCRAFT INFO AND CUMULATIVE STATS
Aircraft Type: 
B744
Registration: 
SELCAL: 
CJDR
MSN/LN: 
27672 / 1091
Operator: 
Total Flights: 
8
Total Block Time: 
46.6 hrs
Total Flight Time: 
44 hrs
Total Fuel Used: 
539,122 kg
DATALINK LOG | Newest first | Current as of: 2022-12-01 01:14:03
LABEL SEQUENCE CONTENT Dn/Up
QD471903:47 72.7▼ Dn
QC400503:40▼ Dn
GA3928ADVANCED GATE ASSIGNMENTS NOT YET AVAILABLE AT THIS AIRPORT▲ Up
GR2952WMKK▼ Dn
5U4840TAF WMKK 291700Z 2918/0100 VRB02KT 9999 FEW030 BECMG 3001/3002 14005KT FEW018 BECMG 3004/3005 16009KT FEW017CB BECMG 3011/3012 VRB02KT▲ Up
5S1723WMKK▼ Dn
2U4739WMKK 291830Z 08005KT 050V140 8000 FEW017CB SCT140 BKN280 28/24 Q1008 NOSIG▲ Up
2S1716WMKK▼ Dn
GA4637ADVANCED GATE ASSIGNMENTS NOT YET AVAILABLE AT THIS AIRPORT▲ Up
GR1618WMKK▼ Dn
461531/OV XXX /TM 0015 /FL330 /TP B744 /TA -18 /RM ▼ Dn
GA4554ADVANCED GATE ASSIGNMENTS NOT YET AVAILABLE AT THIS AIRPORT▲ Up
GR4151WMKK▼ Dn
5U4508TAF WMKK 291100Z 2912/3018 16005KT 9999 FEW018 BECMG 2912/2913 VRB02KT FEW030 BECMG 3001/3002 14005KT FEW018 BECMG 3005/3006 16009KT FEW017CB BECMG 3011/3012 VRB02KT FEW018▲ Up
5S3849WMKK▼ Dn
2U4452WMKK 291630Z VRB02KT 9000 FEW030 BKN280 27/24 Q1009 NOSIG▲ Up
2S3808WMKK▼ Dn
QB164916:16▼ Dn
QA022416:02 382.3▼ Dn


AIRCRAFT HISTORY
FLIGHT DATE FLIGHT NO. ORIGIN DESTINATION CLEARED ROUTE BLOCK TIME FLIGHT TIME FUEL USED PILOT
2018-11-12MAS8686KSEA KSEA 1.6 hrs1.5 hrs35,223 lbJhan Jensen
2018-11-11MAS166RJAA KSEA 9.2 hrs8.9 hrs201,004 lbJhan Jensen
2018-11-03MAS1WSSS RJAA IBIXU IBIVA DONDI DIVSA BTM DOGRA RUVIK HOSBA TOMAN VERIN LUSMO AKMON UDOSI ALDAS AGSAM ANOKI ARESI AKOTA AVMUP ALDIS ABVAR MEVIN MAGMA SADEK KAZIK AMMEK AZAMA TAMAK SHIBK YULIA NIKAI JERID MISAK BUNGU BAFFY CHEVY SYOYU ANGEL BINKS NR21C AF010 AF011 AF012 WEBBS NRE13 AF001 AF002 AF003 LAKES6.7 hrs6.5 hrs219,002 lbJhan Jensen
2018-10-27MAS172WMKK WSSS 0.9 hrs0.7 hrs21,258 lbJhan Jensen
2018-09-29MAS101PHNL WMKK 11.7 hrs11.4 hrs309,607 lbJhan Jensen
2018-09-03MAS100KSLC PHNL 5.9 hrs5.7 hrs131,351 lbJhan Jensen
2018-08-26MAS1EGLL KSLC 9.4 hrs9 hrs252,998 lbJhan Jensen
2018-08-25MAS999EGBP EGLL 1.1 hrs0.4 hrs18,117 lbJhan Jensen